createdAt,value
2019-03-22T00:00:54.004Z,19.77
2019-03-22T00:01:53.918Z,19.75
2019-03-22T00:02:53.872Z,19.74
2019-03-22T00:04:53.936Z,19.73
2019-03-22T00:05:54.028Z,19.71
2019-03-22T00:06:53.954Z,19.73
2019-03-22T00:07:53.943Z,19.68
2019-03-22T00:09:53.997Z,19.68
2019-03-22T00:10:53.973Z,19.68
2019-03-22T00:11:54.009Z,19.7
2019-03-22T00:12:54.137Z,19.68
2019-03-22T00:14:54.038Z,19.67
2019-03-22T00:15:54.037Z,19.65
2019-03-22T00:16:54.138Z,19.67
2019-03-22T00:17:53.822Z,19.65
2019-03-22T00:19:53.840Z,19.67
2019-03-22T00:20:53.920Z,19.65
2019-03-22T00:21:53.939Z,19.64
2019-03-22T00:22:53.897Z,19.65
2019-03-22T00:25:53.994Z,19.64
2019-03-22T00:26:53.895Z,19.61
2019-03-22T00:28:53.960Z,19.61
2019-03-22T00:29:53.990Z,19.6
2019-03-22T00:30:54.052Z,19.61
2019-03-22T00:31:53.982Z,19.6
2019-03-22T00:33:53.994Z,19.56
2019-03-22T00:34:53.891Z,19.54
2019-03-22T00:36:53.857Z,19.58
2019-03-22T00:38:53.856Z,19.54
2019-03-22T00:40:53.983Z,19.54
2019-03-22T00:41:53.941Z,19.56
2019-03-22T00:42:53.938Z,19.57
2019-03-22T00:43:53.997Z,19.54
2019-03-22T00:45:54.100Z,19.56
2019-03-22T00:46:54.150Z,19.54
2019-03-22T00:47:53.967Z,19.53
2019-03-22T00:48:54.455Z,19.54
2019-03-22T00:51:54.146Z,19.5
2019-03-22T00:52:54.053Z,19.53
2019-03-22T00:54:53.809Z,19.52
2019-03-22T00:55:53.799Z,19.52
2019-03-22T00:56:53.796Z,19.47
2019-03-22T00:57:53.841Z,19.47
2019-03-22T01:00:53.911Z,19.5
2019-03-22T01:02:53.967Z,19.46
2019-03-22T01:03:55.043Z,19.43
2019-03-22T01:05:53.961Z,19.46
2019-03-22T01:06:54.081Z,19.45
2019-03-22T01:07:54.151Z,19.42
2019-03-22T01:08:54.076Z,19.42
2019-03-22T01:10:54.381Z,19.45
2019-03-22T01:11:54.286Z,19.42
2019-03-22T01:12:53.874Z,19.4
2019-03-22T01:13:53.811Z,19.4
2019-03-22T01:16:53.833Z,19.4
2019-03-22T01:17:53.866Z,19.39
2019-03-22T01:18:53.918Z,19.39
2019-03-22T01:19:53.887Z,19.4
2019-03-22T01:21:53.932Z,19.36
2019-03-22T01:22:54.021Z,19.39
2019-03-22T01:24:54.022Z,19.36
2019-03-22T01:25:53.975Z,19.37
2019-03-22T01:27:54.111Z,19.37
2019-03-22T01:28:54.009Z,19.36
2019-03-22T01:29:54.040Z,19.35
2019-03-22T01:30:53.748Z,19.36
2019-03-22T01:32:54.263Z,19.35
2019-03-22T01:33:53.777Z,19.3
2019-03-22T01:34:53.817Z,19.35
2019-03-22T01:35:53.936Z,19.32
2019-03-22T01:37:53.851Z,19.33
2019-03-22T01:39:54.068Z,19.33
2019-03-22T01:40:54.077Z,19.33
2019-03-22T01:41:53.896Z,19.3
2019-03-22T01:42:53.947Z,19.3
2019-03-22T01:44:54.057Z,19.32
2019-03-22T01:45:53.960Z,19.29
2019-03-22T01:46:53.948Z,19.32
2019-03-22T01:47:54.106Z,19.3
2019-03-22T01:49:53.805Z,19.27
2019-03-22T01:51:53.879Z,19.27
2019-03-22T01:52:53.897Z,19.29
2019-03-22T01:53:53.924Z,19.27
2019-03-22T01:54:53.895Z,19.27
2019-03-22T01:58:53.943Z,19.23
2019-03-22T01:59:53.941Z,19.23
2019-03-22T02:00:54.089Z,19.25
2019-03-22T02:01:53.955Z,19.22
2019-03-22T02:03:53.990Z,19.25
2019-03-22T02:05:54.080Z,19.22
2019-03-22T02:06:54.001Z,19.23
2019-03-22T02:08:53.785Z,19.2
2019-03-22T02:09:53.770Z,19.23
2019-03-22T02:10:53.913Z,19.2
2019-03-22T02:11:53.789Z,19.22
2019-03-22T02:14:53.804Z,19.22
2019-03-22T02:15:54.254Z,19.2
2019-03-22T02:17:53.863Z,19.2
2019-03-22T02:18:53.874Z,19.2
2019-03-22T02:19:53.874Z,19.18
2019-03-22T02:20:53.955Z,19.2
2019-03-22T02:22:54.028Z,19.2
2019-03-22T02:23:53.951Z,19.18
2019-03-22T02:25:53.985Z,19.19
2019-03-22T02:26:54.164Z,19.19
2019-03-22T02:28:04.763Z,19.18
2019-03-22T02:29:53.811Z,19.16
2019-03-22T02:30:53.870Z,19.15
2019-03-22T02:31:53.868Z,19.16
2019-03-22T02:32:53.924Z,19.18
2019-03-22T02:34:53.982Z,19.13
2019-03-22T02:35:53.967Z,19.13
2019-03-22T02:36:53.950Z,19.16
2019-03-22T02:37:54.207Z,19.15
2019-03-22T02:40:53.939Z,19.12
2019-03-22T02:41:54.004Z,19.13
2019-03-22T02:42:54.050Z,19.11
2019-03-22T02:43:55.173Z,19.11
2019-03-22T02:46:53.865Z,19.12
2019-03-22T02:48:53.787Z,19.11
2019-03-22T02:49:53.804Z,19.09
2019-03-22T02:50:56.801Z,19.09
2019-03-22T02:51:53.781Z,19.11
2019-03-22T02:53:53.823Z,19.11
2019-03-22T02:54:53.873Z,19.08
2019-03-22T02:55:55.468Z,19.09
2019-03-22T02:56:53.925Z,19.11
2019-03-22T02:58:54.264Z,19.08
2019-03-22T02:59:53.944Z,19.11
2019-03-22T03:01:53.987Z,19.06
2019-03-22T03:02:54.056Z,19.08
2019-03-22T03:03:53.808Z,19.06
2019-03-22T03:05:53.971Z,19.05
2019-03-22T03:06:53.831Z,19.05
2019-03-22T03:07:53.804Z,19.06
2019-03-22T03:08:53.912Z,19.06
2019-03-22T03:10:54.013Z,19.06
2019-03-22T03:12:54.251Z,19.03
2019-03-22T03:13:53.946Z,19.05
2019-03-22T03:16:54.043Z,19.03
2019-03-22T03:17:54.087Z,19.02
2019-03-22T03:18:54.108Z,19.02
2019-03-22T03:19:54.206Z,19.03
2019-03-22T03:21:53.896Z,19.03
2019-03-22T03:22:53.911Z,19.06
2019-03-22T03:23:53.919Z,19.03
2019-03-22T03:24:53.815Z,19.03
2019-03-22T03:26:53.987Z,19.02
2019-03-22T03:27:53.833Z,19.02
2019-03-22T03:28:53.889Z,19.01
2019-03-22T03:29:53.852Z,19.01
2019-03-22T03:31:54.038Z,19.01
2019-03-22T03:32:54.385Z,18.99
2019-03-22T03:33:53.982Z,18.98
2019-03-22T03:34:54.112Z,18.97
2019-03-22T03:36:53.972Z,18.98
2019-03-22T03:37:54.140Z,18.99
2019-03-22T03:38:54.110Z,18.99
2019-03-22T03:39:53.839Z,18.97
2019-03-22T03:41:54.089Z,18.97
2019-03-22T03:43:53.859Z,18.98
2019-03-22T03:44:53.850Z,18.98
2019-03-22T03:45:53.867Z,18.98
2019-03-22T03:46:53.843Z,18.95
2019-03-22T03:48:53.906Z,18.97
2019-03-22T03:49:54.072Z,18.97
2019-03-22T03:50:53.934Z,18.95
2019-03-22T03:51:53.981Z,18.94
2019-03-22T03:53:54.169Z,18.95
2019-03-22T03:55:54.056Z,18.92
2019-03-22T03:56:54.032Z,18.94
2019-03-22T03:57:53.828Z,18.92
2019-03-22T03:58:53.900Z,18.95
2019-03-22T04:00:53.792Z,18.92
2019-03-22T04:01:53.830Z,18.94
2019-03-22T04:03:53.789Z,18.92
2019-03-22T04:04:53.824Z,18.91
2019-03-22T04:05:53.878Z,18.91
2019-03-22T04:06:53.867Z,18.9
2019-03-22T04:08:53.954Z,18.9
2019-03-22T04:09:53.923Z,18.9
2019-03-22T04:10:53.921Z,18.9
2019-03-22T04:13:54.005Z,18.88
2019-03-22T04:14:53.892Z,18.9
2019-03-22T04:15:53.781Z,18.9
2019-03-22T04:16:53.823Z,18.88
2019-03-22T04:18:53.814Z,18.87
2019-03-22T04:19:53.831Z,18.88
2019-03-22T04:20:53.987Z,18.85
2019-03-22T04:21:53.851Z,18.87
2019-03-22T04:23:53.964Z,18.85
2019-03-22T04:26:54.042Z,18.88
2019-03-22T04:27:54.035Z,18.85
2019-03-22T04:29:09.157Z,18.87
2019-03-22T04:29:53.966Z,18.85
2019-03-22T04:31:53.996Z,18.85
2019-03-22T04:32:54.012Z,18.84
2019-03-22T04:33:53.723Z,18.84
2019-03-22T04:34:53.740Z,18.83
2019-03-22T04:36:53.767Z,18.83
2019-03-22T04:37:53.869Z,18.83
2019-03-22T04:38:53.833Z,18.84
2019-03-22T04:39:53.871Z,18.84
2019-03-22T04:41:53.820Z,18.85
2019-03-22T04:42:53.880Z,18.87
2019-03-22T04:44:53.856Z,18.87
2019-03-22T04:45:53.897Z,18.88
2019-03-22T04:46:53.872Z,18.88
2019-03-22T04:47:53.915Z,18.9
2019-03-22T04:49:54.016Z,18.91
2019-03-22T04:50:53.719Z,18.91
2019-03-22T04:51:53.735Z,18.95
2019-03-22T04:52:53.750Z,18.92
2019-03-22T04:54:53.768Z,18.98
2019-03-22T04:55:53.871Z,18.99
2019-03-22T04:56:53.806Z,19.02
2019-03-22T04:57:53.825Z,19.02
2019-03-22T04:59:53.865Z,19.05
2019-03-22T05:02:53.889Z,19.13
2019-03-22T05:03:53.901Z,19.18
2019-03-22T05:04:53.895Z,19.15
2019-03-22T05:05:53.976Z,19.18
2019-03-22T05:07:54.192Z,19.22
2019-03-22T05:08:53.938Z,19.23
2019-03-22T05:09:54.234Z,19.23
2019-03-22T05:10:53.793Z,19.27
2019-03-22T05:12:53.820Z,19.3
2019-03-22T05:13:53.749Z,19.33
2019-03-22T05:14:53.769Z,19.35
2019-03-22T05:15:53.812Z,19.37
2019-03-22T05:17:53.799Z,19.39
2019-03-22T05:18:53.792Z,19.45
2019-03-22T05:19:53.834Z,19.4
2019-03-22T05:20:53.878Z,19.46
2019-03-22T05:22:53.865Z,19.49
2019-03-22T05:23:53.858Z,19.53
2019-03-22T05:24:53.931Z,19.54
2019-03-22T05:25:53.983Z,19.57
2019-03-22T05:28:53.819Z,19.61
2019-03-22T05:29:53.805Z,19.63
2019-03-22T05:30:53.782Z,19.65
2019-03-22T05:31:53.915Z,19.65
2019-03-22T05:33:53.917Z,19.67
2019-03-22T05:34:53.891Z,19.68
2019-03-22T05:35:53.915Z,19.73
2019-03-22T05:38:53.997Z,19.75
2019-03-22T05:39:53.897Z,19.78
2019-03-22T05:40:53.888Z,19.77
2019-03-22T05:41:54.025Z,19.81
2019-03-22T05:43:53.958Z,19.82
2019-03-22T05:44:54.053Z,19.82
2019-03-22T05:46:53.670Z,19.85
2019-03-22T05:47:53.830Z,19.86
2019-03-22T05:48:53.847Z,19.88
2019-03-22T05:49:53.844Z,19.89
2019-03-22T05:53:54.265Z,19.93
2019-03-22T05:54:53.896Z,19.92
2019-03-22T05:55:53.891Z,19.93
2019-03-22T05:56:53.813Z,19.98
2019-03-22T05:58:53.846Z,19.98
2019-03-22T05:59:53.834Z,19.96
2019-03-22T06:01:53.908Z,20.01
2019-03-22T06:02:54.020Z,20.05
2019-03-22T06:04:53.722Z,20.05
2019-03-22T06:05:53.757Z,20.05
2019-03-22T06:06:53.747Z,20.08
2019-03-22T06:07:53.825Z,20.08
2019-03-22T06:09:53.882Z,20.12
2019-03-22T06:10:53.895Z,20.12
2019-03-22T06:11:53.793Z,20.13
2019-03-22T06:13:53.953Z,20.15
2019-03-22T06:14:53.946Z,20.16
2019-03-22T06:15:54.086Z,20.18
2019-03-22T06:16:53.938Z,20.18
2019-03-22T06:18:53.906Z,20.2
2019-03-22T06:19:53.929Z,20.22
2019-03-22T06:20:54.005Z,20.25
2019-03-22T06:21:54.060Z,20.25
2019-03-22T06:24:53.830Z,20.23
2019-03-22T06:25:53.726Z,20.26
2019-03-22T06:26:53.705Z,20.27
2019-03-22T06:27:53.826Z,20.3
2019-03-22T06:29:55.015Z,20.27
2019-03-22T06:30:53.728Z,20.27
2019-03-22T06:31:53.802Z,20.27
2019-03-22T06:33:53.972Z,20.33
2019-03-22T06:34:53.836Z,20.3
2019-03-22T06:35:53.906Z,20.29
2019-03-22T06:37:54.001Z,20.32
2019-03-22T06:40:53.741Z,20.32
2019-03-22T06:41:53.713Z,20.33
2019-03-22T06:42:53.803Z,20.3
2019-03-22T06:43:53.738Z,20.33
2019-03-22T06:45:53.607Z,20.35
2019-03-22T06:46:53.800Z,20.36
2019-03-22T06:47:53.935Z,20.35
2019-03-22T06:49:53.824Z,20.37
2019-03-22T06:50:53.842Z,20.37
2019-03-22T06:51:53.922Z,20.36
2019-03-22T06:52:53.982Z,20.4
2019-03-22T06:54:53.899Z,20.4
2019-03-22T06:55:53.897Z,20.42
2019-03-22T06:56:54.074Z,20.42
2019-03-22T06:58:53.736Z,20.43
2019-03-22T07:00:53.696Z,20.44
2019-03-22T07:01:53.726Z,20.46
2019-03-22T07:05:53.737Z,20.48
2019-03-22T07:07:53.773Z,20.5
2019-03-22T07:08:53.756Z,20.53
2019-03-22T07:09:53.837Z,20.51
2019-03-22T07:11:53.663Z,20.55
2019-03-22T07:13:53.865Z,20.53
2019-03-22T07:14:53.868Z,20.54
2019-03-22T07:15:53.867Z,20.54
2019-03-22T07:16:53.685Z,20.54
2019-03-22T07:19:53.627Z,20.55
2019-03-22T07:20:53.992Z,20.54
2019-03-22T07:22:53.754Z,20.59
2019-03-22T07:23:53.841Z,20.57
2019-03-22T07:24:53.786Z,20.59
2019-03-22T07:25:53.906Z,20.6
2019-03-22T07:27:53.841Z,20.57
2019-03-22T07:29:53.848Z,20.6
2019-03-22T07:30:53.876Z,20.59
2019-03-22T07:31:54.162Z,20.61
2019-03-22T07:32:53.910Z,20.59
2019-03-22T07:34:53.690Z,20.64
2019-03-22T07:35:53.690Z,20.63
2019-03-22T07:36:53.660Z,20.63
2019-03-22T07:39:53.750Z,20.6
2019-03-22T07:41:54.227Z,20.64
2019-03-22T07:42:53.753Z,20.64
2019-03-22T07:44:53.891Z,20.67
2019-03-22T07:45:53.913Z,20.68
2019-03-22T07:46:53.868Z,20.68
2019-03-22T07:47:56.222Z,20.68
2019-03-22T07:50:53.865Z,20.71
2019-03-22T07:51:53.686Z,20.72
2019-03-22T07:52:53.678Z,20.72
2019-03-22T07:54:53.724Z,20.75
2019-03-22T07:56:53.742Z,20.77
2019-03-22T07:58:53.751Z,20.77
2019-03-22T07:59:53.783Z,20.74
2019-03-22T08:00:53.914Z,20.77
2019-03-22T08:03:54.174Z,20.75
2019-03-22T08:04:53.943Z,20.78
2019-03-22T08:05:53.863Z,20.78
2019-03-22T08:06:53.704Z,20.78
2019-03-22T08:08:53.652Z,20.82
2019-03-22T08:09:55.040Z,20.81
2019-03-22T08:10:53.878Z,20.84
2019-03-22T08:11:53.689Z,20.84
2019-03-22T08:13:53.734Z,20.85
2019-03-22T08:14:53.899Z,20.85
2019-03-22T08:15:53.983Z,20.82
2019-03-22T08:16:53.804Z,20.85
2019-03-22T08:18:53.904Z,20.85
2019-03-22T08:19:53.910Z,20.88
2019-03-22T08:20:54.011Z,20.84
2019-03-22T08:24:54.032Z,20.89
2019-03-22T08:26:53.797Z,20.89
2019-03-22T08:27:53.844Z,20.89
2019-03-22T08:29:53.844Z,20.89
2019-03-22T08:30:53.856Z,20.89
2019-03-22T08:31:53.672Z,20.89
2019-03-22T08:32:53.909Z,20.89
2019-03-22T08:34:53.815Z,20.95
2019-03-22T08:35:53.856Z,20.92
2019-03-22T08:36:54.153Z,20.94
2019-03-22T08:37:53.943Z,20.94
2019-03-22T08:39:56.454Z,20.95
2019-03-22T08:40:53.685Z,20.95
2019-03-22T08:41:54.000Z,20.98
2019-03-22T08:42:53.706Z,20.99
2019-03-22T08:44:53.738Z,20.99
2019-03-22T08:45:53.739Z,21.01
2019-03-22T08:47:54.053Z,21.01
2019-03-22T08:48:53.959Z,21.01
2019-03-22T08:49:53.974Z,21.02
2019-03-22T08:50:54.177Z,21.06
2019-03-22T08:52:53.844Z,21.08
2019-03-22T08:53:56.167Z,21.08
2019-03-22T08:54:53.898Z,21.06
2019-03-22T08:55:53.894Z,21.08
2019-03-22T08:57:53.927Z,21.12
2019-03-22T08:58:54.043Z,21.14
2019-03-22T08:59:53.705Z,21.14
2019-03-22T09:01:53.932Z,21.15
2019-03-22T09:02:54.023Z,21.16
2019-03-22T09:03:53.965Z,21.18
2019-03-22T09:04:53.767Z,21.18
2019-03-22T09:06:53.917Z,21.15
2019-03-22T09:07:53.809Z,21.15
2019-03-22T09:09:54.030Z,21.15
2019-03-22T09:10:53.942Z,21.15
2019-03-22T09:11:53.869Z,21.12
2019-03-22T09:12:53.931Z,21.12
2019-03-22T09:14:53.955Z,21.12
2019-03-22T09:15:54.046Z,21.09
2019-03-22T09:16:54.038Z,21.11
2019-03-22T09:17:53.878Z,21.11
2019-03-22T09:19:53.786Z,21.08
2019-03-22T09:20:53.876Z,21.09
2019-03-22T09:21:53.757Z,21.08
2019-03-22T09:22:53.753Z,21.08
2019-03-22T09:24:53.929Z,21.09
2019-03-22T09:26:53.868Z,21.09
2019-03-22T09:27:54.035Z,21.08
2019-03-22T09:28:53.994Z,21.08
2019-03-22T09:29:54.037Z,21.06
2019-03-22T09:31:54.337Z,21.06
2019-03-22T09:32:53.894Z,21.06
2019-03-22T09:33:53.785Z,21.09
2019-03-22T09:34:53.882Z,21.08
2019-03-22T09:36:53.751Z,21.11
2019-03-22T09:37:53.966Z,21.09
2019-03-22T09:38:53.938Z,21.09
2019-03-22T09:39:53.959Z,21.11
2019-03-22T09:41:53.788Z,21.14
2019-03-22T09:42:53.999Z,21.12
2019-03-22T09:43:53.924Z,21.16
2019-03-22T09:45:53.935Z,21.16
2019-03-22T09:46:53.947Z,21.16
2019-03-22T09:47:53.979Z,21.15
2019-03-22T09:48:53.941Z,21.15
2019-03-22T09:50:53.734Z,21.16
2019-03-22T09:52:53.862Z,21.19
2019-03-22T09:53:53.606Z,21.22
2019-03-22T09:54:53.712Z,21.18
2019-03-22T09:55:53.896Z,21.19
2019-03-22T09:57:53.945Z,21.18
2019-03-22T09:58:53.851Z,21.19
2019-03-22T09:59:53.809Z,21.18
2019-03-22T10:00:54.587Z,21.18
2019-03-22T10:03:53.882Z,21.19
2019-03-22T10:04:53.913Z,21.18
2019-03-22T10:05:54.003Z,21.19
2019-03-22T10:07:53.738Z,21.22
2019-03-22T10:09:53.990Z,21.22
2019-03-22T10:10:53.686Z,21.22
2019-03-22T10:11:53.998Z,21.19
2019-03-22T10:12:53.800Z,21.18
2019-03-22T10:15:53.836Z,21.18
2019-03-22T10:16:54.008Z,21.16
2019-03-22T10:17:53.898Z,21.16
2019-03-22T10:18:53.716Z,21.18
2019-03-22T10:20:53.866Z,21.16
2019-03-22T10:21:54.162Z,21.15
2019-03-22T10:23:54.231Z,21.16
2019-03-22T10:25:53.947Z,21.16
2019-03-22T10:27:53.931Z,21.16
2019-03-22T10:28:53.840Z,21.18
2019-03-22T10:29:53.769Z,21.16
2019-03-22T10:30:53.799Z,21.15
2019-03-22T10:32:54.195Z,21.16
2019-03-22T10:33:53.871Z,21.16
2019-03-22T10:35:54.264Z,21.14
2019-03-22T10:36:54.020Z,21.15
2019-03-22T10:38:31.364Z,21.15
2019-03-22T10:38:53.880Z,21.15
2019-03-22T10:40:54.104Z,21.18
2019-03-22T10:41:53.950Z,21.18
2019-03-22T10:43:53.728Z,21.18
2019-03-22T10:44:53.955Z,21.21
2019-03-22T10:45:53.799Z,21.21
2019-03-22T10:46:53.818Z,21.23
2019-03-22T10:48:53.755Z,21.25
2019-03-22T10:49:53.709Z,21.25
2019-03-22T10:50:53.800Z,21.23
2019-03-22T10:51:59.046Z,21.25
2019-03-22T10:53:53.980Z,21.27
2019-03-22T10:55:53.927Z,21.27
2019-03-22T10:57:55.899Z,21.3
2019-03-22T10:58:54.249Z,21.3
2019-03-22T10:59:53.917Z,21.32
2019-03-22T11:00:53.609Z,21.33
2019-03-22T11:02:53.643Z,21.33
2019-03-22T11:03:54.603Z,21.36
2019-03-22T11:04:53.653Z,21.34
2019-03-22T11:05:53.553Z,21.39
2019-03-22T11:07:53.683Z,21.37
2019-03-22T11:08:53.697Z,21.36
2019-03-22T11:10:53.751Z,21.4
2019-03-22T11:11:53.778Z,21.42
2019-03-22T11:12:53.762Z,21.39
2019-03-22T11:13:53.564Z,21.4
2019-03-22T11:15:54.154Z,21.43
2019-03-22T11:16:53.687Z,21.43
2019-03-22T11:17:53.784Z,21.46
2019-03-22T11:18:53.613Z,21.42
2019-03-22T11:20:53.652Z,21.43
2019-03-22T11:21:53.708Z,21.44
2019-03-22T11:22:53.532Z,21.43
2019-03-22T11:23:53.719Z,21.46
2019-03-22T11:26:04.784Z,21.46
2019-03-22T11:26:53.732Z,21.43
2019-03-22T11:27:53.760Z,21.44
2019-03-22T11:29:53.787Z,21.46
2019-03-22T11:30:53.613Z,21.46
2019-03-22T11:31:53.905Z,21.46
2019-03-22T11:32:53.844Z,21.46
2019-03-22T11:34:53.569Z,21.47
2019-03-22T11:35:53.589Z,21.47
2019-03-22T11:37:53.971Z,21.46
2019-03-22T11:38:53.634Z,21.49
2019-03-22T11:39:53.531Z,21.47
2019-03-22T11:40:53.809Z,21.47
2019-03-22T11:42:53.744Z,21.49
2019-03-22T11:43:53.734Z,21.44
2019-03-22T11:44:53.714Z,21.46
2019-03-22T11:45:53.810Z,21.49
2019-03-22T11:47:53.538Z,21.46
2019-03-22T11:48:53.773Z,21.49
2019-03-22T11:49:53.897Z,21.5
2019-03-22T11:51:53.692Z,21.49
2019-03-22T11:52:53.614Z,21.5
2019-03-22T11:53:53.764Z,21.5
2019-03-22T11:54:53.650Z,21.49
2019-03-22T11:56:53.574Z,21.49
2019-03-22T11:57:53.753Z,21.5
2019-03-22T11:58:53.758Z,21.49
2019-03-22T11:59:53.850Z,21.49
2019-03-22T12:03:53.792Z,21.49
2019-03-22T12:04:53.839Z,21.44
2019-03-22T12:05:53.865Z,21.47
2019-03-22T12:06:53.813Z,21.46
2019-03-22T12:08:53.584Z,21.44
2019-03-22T12:09:53.629Z,21.43
2019-03-22T12:10:53.589Z,21.44
2019-03-22T12:11:53.616Z,21.42
2019-03-22T12:13:53.639Z,21.42
2019-03-22T12:14:53.645Z,21.43
2019-03-22T12:15:53.658Z,21.42
2019-03-22T12:16:53.691Z,21.42
2019-03-22T12:18:53.718Z,21.4
2019-03-22T12:19:53.812Z,21.39
2019-03-22T12:20:54.194Z,21.39
2019-03-22T12:21:53.837Z,21.39
2019-03-22T12:23:53.706Z,21.34
2019-03-22T12:24:53.714Z,21.34
2019-03-22T12:25:53.562Z,21.34
2019-03-22T12:26:53.635Z,21.36
2019-03-22T12:28:53.681Z,21.34
2019-03-22T12:29:53.687Z,21.33
2019-03-22T12:31:53.798Z,21.29
2019-03-22T12:32:53.732Z,21.32
2019-03-22T12:34:06.383Z,21.32
2019-03-22T12:35:06.563Z,21.3
2019-03-22T12:36:53.830Z,21.29
2019-03-22T12:37:53.984Z,21.3
2019-03-22T12:38:53.646Z,21.34
2019-03-22T12:39:53.677Z,21.33
2019-03-22T12:41:53.953Z,21.34
2019-03-22T12:42:53.969Z,21.33
2019-03-22T12:43:53.555Z,21.36
2019-03-22T12:44:53.613Z,21.34
2019-03-22T12:46:53.654Z,21.36
2019-03-22T12:47:53.684Z,21.34
2019-03-22T12:49:53.707Z,21.36
2019-03-22T12:50:53.723Z,21.36
2019-03-22T12:51:53.605Z,21.34
2019-03-22T12:52:53.724Z,21.34
2019-03-22T12:54:53.832Z,21.34
2019-03-22T12:55:53.813Z,21.34
2019-03-22T12:56:53.599Z,21.34
2019-03-22T12:58:53.636Z,21.33
2019-03-22T12:59:53.666Z,21.33
2019-03-22T13:00:53.665Z,21.34
2019-03-22T13:01:53.571Z,21.33
2019-03-22T13:03:54.098Z,21.33
2019-03-22T13:04:53.668Z,21.32
2019-03-22T13:06:53.801Z,21.34
2019-03-22T13:07:53.841Z,21.27
2019-03-22T13:09:53.669Z,21.29
2019-03-22T13:10:53.805Z,21.27
2019-03-22T13:11:53.631Z,21.27
2019-03-22T13:13:53.589Z,21.26
2019-03-22T13:15:53.591Z,21.25
2019-03-22T13:16:53.584Z,21.23
2019-03-22T13:17:53.613Z,21.26
2019-03-22T13:18:53.539Z,21.23
2019-03-22T13:20:53.750Z,21.22
2019-03-22T13:21:53.668Z,21.21
2019-03-22T13:23:53.679Z,21.19
2019-03-22T13:24:54.141Z,21.19
2019-03-22T13:25:53.885Z,21.21
2019-03-22T13:27:53.891Z,21.19
2019-03-22T13:28:53.578Z,21.19
2019-03-22T13:30:53.670Z,21.19
2019-03-22T13:31:53.749Z,21.18
2019-03-22T13:32:53.510Z,21.19
2019-03-22T13:33:53.651Z,21.16
2019-03-22T13:35:53.674Z,21.15
2019-03-22T13:36:53.717Z,21.15
2019-03-22T13:37:53.791Z,21.16
2019-03-22T13:39:53.799Z,21.15
2019-03-22T13:40:53.718Z,21.12
2019-03-22T13:41:53.511Z,21.14
2019-03-22T13:42:53.797Z,21.14
2019-03-22T13:44:53.462Z,21.14
2019-03-22T13:45:53.609Z,21.15
2019-03-22T13:46:53.741Z,21.15
2019-03-22T13:48:53.610Z,21.14
2019-03-22T13:49:53.938Z,21.09
2019-03-22T13:50:53.818Z,21.08
2019-03-22T13:51:53.796Z,21.06
2019-03-22T13:53:53.745Z,21.02
2019-03-22T13:54:53.666Z,21.02
2019-03-22T13:55:53.776Z,20.99
2019-03-22T13:56:53.823Z,20.99
2019-03-22T13:58:53.837Z,20.98
2019-03-22T13:59:54.293Z,20.95
2019-03-22T14:00:53.554Z,20.94
2019-03-22T14:01:53.556Z,20.94
2019-03-22T14:04:53.519Z,20.92
2019-03-22T14:05:53.654Z,20.92
2019-03-22T14:06:53.685Z,20.92
2019-03-22T14:07:54.049Z,20.92
2019-03-22T14:09:53.665Z,20.88
2019-03-22T14:10:53.754Z,20.91
2019-03-22T14:11:53.730Z,20.88
2019-03-22T14:12:53.481Z,20.87
2019-03-22T14:14:53.775Z,20.87
2019-03-22T14:15:53.768Z,20.87
2019-03-22T14:16:54.378Z,20.88
2019-03-22T14:17:53.500Z,20.85
2019-03-22T14:19:53.498Z,20.85
2019-03-22T14:20:53.688Z,20.82
2019-03-22T14:21:53.560Z,20.81
2019-03-22T14:22:54.209Z,20.82
2019-03-22T14:24:53.647Z,20.8
2019-03-22T14:25:53.703Z,20.8
2019-03-22T14:26:53.858Z,20.8
2019-03-22T14:27:53.757Z,20.77
2019-03-22T14:30:54.034Z,20.77
2019-03-22T14:31:53.806Z,20.75
2019-03-22T14:32:53.746Z,20.78
2019-03-22T14:33:53.537Z,20.75
2019-03-22T14:53:49.832Z,20.77
2019-03-22T14:54:49.689Z,20.78
2019-03-22T14:55:49.736Z,20.77
2019-03-22T14:56:51.802Z,20.75
2019-03-22T14:57:52.834Z,20.72
2019-03-22T14:58:49.815Z,20.71
2019-03-22T14:59:59.651Z,20.66
2019-03-22T15:00:49.773Z,20.66
2019-03-22T15:01:49.778Z,20.63
2019-03-22T15:02:49.893Z,20.66
2019-03-22T15:03:49.916Z,20.6
2019-03-22T15:04:50.255Z,20.59
2019-03-22T15:05:49.923Z,20.57
2019-03-22T15:06:49.721Z,20.57
2019-03-22T15:07:49.852Z,20.54
2019-03-22T15:08:49.875Z,20.55
2019-03-22T15:09:49.900Z,20.55
2019-03-22T15:10:49.761Z,20.51
2019-03-22T15:11:49.969Z,20.53
2019-03-22T15:12:49.650Z,20.51
2019-03-22T15:13:49.842Z,20.51
2019-03-22T15:14:49.659Z,20.5
2019-03-22T15:15:49.728Z,20.48
2019-03-22T15:16:49.778Z,20.48
2019-03-22T15:17:49.770Z,20.46
2019-03-22T15:18:49.661Z,20.47
2019-03-22T15:19:49.786Z,20.44
2019-03-22T15:20:49.770Z,20.42
2019-03-22T15:21:49.425Z,20.42
2019-03-22T15:22:49.247Z,20.42
2019-03-22T15:23:49.572Z,20.44
2019-03-22T15:24:49.407Z,20.42
2019-03-22T15:25:49.419Z,20.4
2019-03-22T15:26:49.434Z,20.42
2019-03-22T15:27:49.518Z,20.43
2019-03-22T15:28:49.788Z,20.42
2019-03-22T15:29:49.271Z,20.4
2019-03-22T15:30:49.334Z,20.43
2019-03-22T15:31:49.294Z,20.39
2019-03-22T15:32:49.351Z,20.37
2019-03-22T15:33:50.587Z,20.4
2019-03-22T15:34:49.228Z,20.36
2019-03-22T15:35:50.602Z,20.36
2019-03-22T15:36:49.374Z,20.3
2019-03-22T15:37:49.464Z,20.33
2019-03-22T15:38:51.227Z,20.33
2019-03-22T15:39:49.414Z,20.3
2019-03-22T15:40:49.404Z,20.32
2019-03-22T15:41:49.427Z,20.3
2019-03-22T15:42:49.547Z,20.29
2019-03-22T15:43:49.456Z,20.29
2019-03-22T15:44:49.748Z,20.27
2019-03-22T15:45:49.466Z,20.25
2019-03-22T15:46:49.472Z,20.27
2019-03-22T15:47:49.492Z,20.26
2019-03-22T15:48:49.580Z,20.29
2019-03-22T15:49:49.229Z,20.27
2019-03-22T15:50:49.392Z,20.26
2019-03-22T15:51:49.270Z,20.26
2019-03-22T15:52:49.353Z,20.25
2019-03-22T15:53:49.288Z,20.26
2019-03-22T15:54:49.274Z,20.29
2019-03-22T15:55:49.329Z,20.27
2019-03-22T15:56:49.426Z,20.27
2019-03-22T15:57:49.378Z,20.26
2019-03-22T15:58:49.389Z,20.26
2019-03-22T15:59:49.440Z,20.3
2019-03-22T16:00:49.259Z,20.3
2019-03-22T16:01:49.389Z,20.3
2019-03-22T16:02:49.435Z,20.32
2019-03-22T16:03:49.397Z,20.32
2019-03-22T16:04:49.455Z,20.35
2019-03-22T16:05:49.454Z,20.33
2019-03-22T16:06:49.462Z,20.33
2019-03-22T16:07:49.368Z,20.35
2019-03-22T16:08:49.285Z,20.35
2019-03-22T16:09:49.329Z,20.33
2019-03-22T16:10:49.294Z,20.33
2019-03-22T16:11:49.302Z,20.35
2019-03-22T16:12:49.295Z,20.36
2019-03-22T16:13:49.367Z,20.36
2019-03-22T16:14:49.492Z,20.36
2019-03-22T16:15:49.402Z,20.35
2019-03-22T16:16:50.247Z,20.36
2019-03-22T16:17:49.371Z,20.39
2019-03-22T16:18:49.548Z,20.36
2019-03-22T16:19:49.642Z,20.37
2019-03-22T16:21:00.509Z,20.36
2019-03-22T16:21:49.498Z,20.36
2019-03-22T16:22:49.451Z,20.37
2019-03-22T16:23:49.431Z,20.35
2019-03-22T16:24:49.486Z,20.35
2019-03-22T16:25:49.470Z,20.35
2019-03-22T16:26:49.457Z,20.35
2019-03-22T16:27:49.222Z,20.33
2019-03-22T16:28:49.232Z,20.35
2019-03-22T16:29:49.502Z,20.3
2019-03-22T16:30:49.227Z,20.3
2019-03-22T16:31:49.320Z,20.33
2019-03-22T16:32:49.315Z,20.33
2019-03-22T16:33:55.221Z,20.33
2019-03-22T16:34:49.267Z,20.32
2019-03-22T16:35:49.314Z,20.29
2019-03-22T16:36:49.328Z,20.3
2019-03-22T16:37:49.352Z,20.27
2019-03-22T16:38:49.199Z,20.3
2019-03-22T16:39:49.397Z,20.26
2019-03-22T16:40:49.622Z,20.26
2019-03-22T16:41:49.445Z,20.22
2019-03-22T16:42:49.437Z,20.25
2019-03-22T16:43:49.436Z,20.23
2019-03-22T16:44:49.202Z,20.23
2019-03-22T16:45:49.414Z,20.23
2019-03-22T16:46:49.315Z,20.22
2019-03-22T16:47:49.284Z,20.22
2019-03-22T16:48:49.385Z,20.19
2019-03-22T16:49:49.278Z,20.18
2019-03-22T16:50:49.279Z,20.19
2019-03-22T16:51:49.446Z,20.18
2019-03-22T16:52:49.221Z,20.16
2019-03-22T16:53:49.423Z,20.19
2019-03-22T16:54:49.337Z,20.16
2019-03-22T16:55:49.364Z,20.18
2019-03-22T16:56:49.510Z,20.13
2019-03-22T16:57:49.516Z,20.16
2019-03-22T16:58:49.450Z,20.16
2019-03-22T16:59:49.503Z,20.16
2019-03-22T17:00:50.457Z,20.13
2019-03-22T17:01:49.563Z,20.12
2019-03-22T17:02:49.730Z,20.15
2019-03-22T17:03:49.335Z,20.12
2019-03-22T17:04:49.362Z,20.12
2019-03-22T17:05:49.227Z,20.11
2019-03-22T17:06:49.600Z,20.11
2019-03-22T17:07:49.318Z,20.09
2019-03-22T17:08:49.272Z,20.09
2019-03-22T17:09:49.325Z,20.12